sensor_id;sensor_type;location;lat;lon;timestamp;P1;durP1;ratioP1;P2;durP2;ratioP2
58244;SDS011;44550;43.864;25.986;2022-08-07T00:02:32;12.02;;;10.55;;
58244;SDS011;44550;43.864;25.986;2022-08-07T00:12:20;13.27;;;10.93;;
58244;SDS011;44550;43.864;25.986;2022-08-07T00:17:35;14.05;;;11.23;;
58244;SDS011;44550;43.864;25.986;2022-08-07T00:22:56;11.75;;;10.57;;
58244;SDS011;44550;43.864;25.986;2022-08-07T00:33:22;10.73;;;9.73;;
58244;SDS011;44550;43.864;25.986;2022-08-07T01:00:57;16.48;;;10.55;;
58244;SDS011;44550;43.864;25.986;2022-08-07T01:11:51;11.77;;;10.60;;
58244;SDS011;44550;43.864;25.986;2022-08-07T01:17:35;12.07;;;10.88;;
58244;SDS011;44550;43.864;25.986;2022-08-07T01:22:43;12.85;;;11.65;;
58244;SDS011;44550;43.864;25.986;2022-08-07T01:29:12;16.27;;;11.10;;
58244;SDS011;44550;43.864;25.986;2022-08-07T01:33:33;21.13;;;12.32;;
58244;SDS011;44550;43.864;25.986;2022-08-07T01:44:17;13.57;;;11.07;;
58244;SDS011;44550;43.864;25.986;2022-08-07T01:49:31;12.45;;;10.82;;
58244;SDS011;44550;43.864;25.986;2022-08-07T02:00:06;13.88;;;11.60;;
58244;SDS011;44550;43.864;25.986;2022-08-07T02:17:03;15.07;;;10.60;;
58244;SDS011;44550;43.864;25.986;2022-08-07T02:38:32;11.50;;;9.25;;
58244;SDS011;44550;43.864;25.986;2022-08-07T02:43:46;10.52;;;9.43;;
58244;SDS011;44550;43.864;25.986;2022-08-07T02:54:45;11.00;;;9.68;;
58244;SDS011;44550;43.864;25.986;2022-08-07T03:00:44;11.05;;;9.70;;
58244;SDS011;44550;43.864;25.986;2022-08-07T03:16:29;11.93;;;9.23;;
58244;SDS011;44550;43.864;25.986;2022-08-07T03:21:59;15.77;;;10.07;;
58244;SDS011;44550;43.864;25.986;2022-08-07T03:32:32;11.23;;;10.15;;
58244;SDS011;44550;43.864;25.986;2022-08-07T03:38:31;12.68;;;10.27;;
58244;SDS011;44550;43.864;25.986;2022-08-07T03:43:27;12.93;;;10.38;;
58244;SDS011;44550;43.864;25.986;2022-08-07T03:48:47;14.95;;;9.77;;
58244;SDS011;44550;43.864;25.986;2022-08-07T03:54:08;14.80;;;10.48;;
58244;SDS011;44550;43.864;25.986;2022-08-07T04:05:33;15.18;;;9.60;;
58244;SDS011;44550;43.864;25.986;2022-08-07T04:11:09;14.93;;;12.10;;
58244;SDS011;44550;43.864;25.986;2022-08-07T04:33:53;27.15;;;20.50;;
58244;SDS011;44550;43.864;25.986;2022-08-07T04:39:30;15.75;;;11.35;;
58244;SDS011;44550;43.864;25.986;2022-08-07T04:50:07;12.05;;;10.85;;
58244;SDS011;44550;43.864;25.986;2022-08-07T04:55:46;11.43;;;10.20;;
58244;SDS011;44550;43.864;25.986;2022-08-07T05:01:27;12.13;;;9.95;;
58244;SDS011;44550;43.864;25.986;2022-08-07T05:25:11;13.88;;;8.98;;
58244;SDS011;44550;43.864;25.986;2022-08-07T05:36:50;10.48;;;8.70;;
58244;SDS011;44550;43.864;25.986;2022-08-07T05:42:45;9.57;;;8.65;;
58244;SDS011;44550;43.864;25.986;2022-08-07T05:59:40;9.48;;;8.27;;
58244;SDS011;44550;43.864;25.986;2022-08-07T06:22:38;8.18;;;7.40;;
58244;SDS011;44550;43.864;25.986;2022-08-07T06:33:37;9.13;;;8.23;;
58244;SDS011;44550;43.864;25.986;2022-08-07T07:02:12;11.45;;;8.73;;
58244;SDS011;44550;43.864;25.986;2022-08-07T07:47:14;8.27;;;7.55;;
58244;SDS011;44550;43.864;25.986;2022-08-07T07:52:33;9.75;;;7.47;;
58244;SDS011;44550;43.864;25.986;2022-08-07T07:58:23;9.13;;;8.10;;
58244;SDS011;44550;43.864;25.986;2022-08-07T08:04:12;7.90;;;7.30;;
58244;SDS011;44550;43.864;25.986;2022-08-07T09:05:58;10.95;;;8.98;;
58244;SDS011;44550;43.864;25.986;2022-08-07T09:17:36;12.00;;;8.80;;
58244;SDS011;44550;43.864;25.986;2022-08-07T10:42:51;7.40;;;6.38;;
58244;SDS011;44550;43.864;25.986;2022-08-07T11:11:25;14.85;;;7.70;;
58244;SDS011;44550;43.864;25.986;2022-08-07T11:16:41;15.80;;;6.57;;
58244;SDS011;44550;43.864;25.986;2022-08-07T11:21:53;10.70;;;5.57;;
58244;SDS011;44550;43.864;25.986;2022-08-07T11:27:14;8.40;;;6.20;;
58244;SDS011;44550;43.864;25.986;2022-08-07T11:32:50;7.85;;;5.55;;
58244;SDS011;44550;43.864;25.986;2022-08-07T11:56:11;12.52;;;4.93;;
58244;SDS011;44550;43.864;25.986;2022-08-07T12:01:12;7.13;;;4.55;;
58244;SDS011;44550;43.864;25.986;2022-08-07T12:17:44;8.75;;;5.05;;
58244;SDS011;44550;43.864;25.986;2022-08-07T12:34:05;6.65;;;5.20;;
58244;SDS011;44550;43.864;25.986;2022-08-07T12:38:55;13.35;;;7.75;;
58244;SDS011;44550;43.864;25.986;2022-08-07T13:31:09;6.45;;;5.15;;
58244;SDS011;44550;43.864;25.986;2022-08-07T13:42:35;11.68;;;4.72;;
58244;SDS011;44550;43.864;25.986;2022-08-07T14:15:29;5.47;;;4.20;;
58244;SDS011;44550;43.864;25.986;2022-08-07T14:20:46;6.60;;;3.95;;
58244;SDS011;44550;43.864;25.986;2022-08-07T14:24:51;11.23;;;3.90;;
58244;SDS011;44550;43.864;25.986;2022-08-07T14:28:55;17.25;;;4.15;;
58244;SDS011;44550;43.864;25.986;2022-08-07T14:33:06;4.45;;;3.95;;
58244;SDS011;44550;43.864;25.986;2022-08-07T14:37:17;4.15;;;3.75;;
58244;SDS011;44550;43.864;25.986;2022-08-07T14:41:38;4.70;;;3.63;;
58244;SDS011;44550;43.864;25.986;2022-08-07T14:46:09;8.15;;;4.68;;
58244;SDS011;44550;43.864;25.986;2022-08-07T14:50:27;4.38;;;4.03;;
58244;SDS011;44550;43.864;25.986;2022-08-07T14:54:36;10.52;;;4.55;;
58244;SDS011;44550;43.864;25.986;2022-08-07T14:58:39;6.72;;;3.80;;
58244;SDS011;44550;43.864;25.986;2022-08-07T15:07:18;12.48;;;4.47;;
58244;SDS011;44550;43.864;25.986;2022-08-07T15:11:43;7.68;;;3.88;;
58244;SDS011;44550;43.864;25.986;2022-08-07T15:16:00;7.72;;;3.05;;
58244;SDS011;44550;43.864;25.986;2022-08-07T15:20:08;5.20;;;3.88;;
58244;SDS011;44550;43.864;25.986;2022-08-07T15:24:32;6.43;;;3.95;;
58244;SDS011;44550;43.864;25.986;2022-08-07T15:28:57;6.20;;;3.47;;
58244;SDS011;44550;43.864;25.986;2022-08-07T15:33:18;6.97;;;3.70;;
58244;SDS011;44550;43.864;25.986;2022-08-07T15:37:33;9.55;;;5.05;;
58244;SDS011;44550;43.864;25.986;2022-08-07T15:41:56;3.83;;;3.28;;
58244;SDS011;44550;43.864;25.986;2022-08-07T15:46:20;4.63;;;3.83;;
58244;SDS011;44550;43.864;25.986;2022-08-07T15:50:36;4.63;;;3.58;;
58244;SDS011;44550;43.864;25.986;2022-08-07T15:54:59;3.78;;;3.25;;
58244;SDS011;44550;43.864;25.986;2022-08-07T15:59:10;8.68;;;3.97;;
58244;SDS011;44550;43.864;25.986;2022-08-07T16:03:37;3.63;;;3.30;;
58244;SDS011;44550;43.864;25.986;2022-08-07T16:07:45;7.72;;;4.35;;
58244;SDS011;44550;43.864;25.986;2022-08-07T16:12:09;4.13;;;3.75;;
58244;SDS011;44550;43.864;25.986;2022-08-07T16:16:30;5.22;;;4.10;;
58244;SDS011;44550;43.864;25.986;2022-08-07T16:20:51;4.63;;;3.55;;
58244;SDS011;44550;43.864;25.986;2022-08-07T16:30:02;3.85;;;3.55;;
58244;SDS011;44550;43.864;25.986;2022-08-07T16:34:41;8.40;;;5.57;;
58244;SDS011;44550;43.864;25.986;2022-08-07T16:38:50;7.28;;;4.32;;
58244;SDS011;44550;43.864;25.986;2022-08-07T16:43:09;10.68;;;4.95;;
58244;SDS011;44550;43.864;25.986;2022-08-07T16:47:47;9.68;;;5.28;;
58244;SDS011;44550;43.864;25.986;2022-08-07T16:52:12;5.82;;;4.80;;
58244;SDS011;44550;43.864;25.986;2022-08-07T16:56:53;11.73;;;5.40;;
58244;SDS011;44550;43.864;25.986;2022-08-07T17:01:33;5.68;;;3.47;;
58244;SDS011;44550;43.864;25.986;2022-08-07T17:05:41;6.45;;;3.88;;
58244;SDS011;44550;43.864;25.986;2022-08-07T17:10:06;3.95;;;3.58;;
58244;SDS011;44550;43.864;25.986;2022-08-07T17:14:34;8.20;;;3.65;;
58244;SDS011;44550;43.864;25.986;2022-08-07T17:18:42;3.70;;;3.40;;
58244;SDS011;44550;43.864;25.986;2022-08-07T17:22:51;4.50;;;3.47;;
58244;SDS011;44550;43.864;25.986;2022-08-07T17:26:57;4.25;;;3.47;;
58244;SDS011;44550;43.864;25.986;2022-08-07T17:31:09;6.57;;;3.75;;
58244;SDS011;44550;43.864;25.986;2022-08-07T17:35:14;5.40;;;3.50;;
58244;SDS011;44550;43.864;25.986;2022-08-07T17:39:41;5.75;;;4.15;;
58244;SDS011;44550;43.864;25.986;2022-08-07T17:44:06;6.35;;;3.83;;
58244;SDS011;44550;43.864;25.986;2022-08-07T17:48:32;4.35;;;3.95;;
58244;SDS011;44550;43.864;25.986;2022-08-07T17:52:45;5.10;;;4.38;;
58244;SDS011;44550;43.864;25.986;2022-08-07T17:56:56;7.90;;;4.05;;
58244;SDS011;44550;43.864;25.986;2022-08-07T18:01:18;7.50;;;3.83;;
58244;SDS011;44550;43.864;25.986;2022-08-07T18:05:39;8.40;;;4.72;;
58244;SDS011;44550;43.864;25.986;2022-08-07T18:10:01;8.52;;;4.13;;
58244;SDS011;44550;43.864;25.986;2022-08-07T18:14:30;4.47;;;4.07;;
58244;SDS011;44550;43.864;25.986;2022-08-07T18:18:43;5.38;;;3.65;;
58244;SDS011;44550;43.864;25.986;2022-08-07T18:23:09;9.95;;;5.43;;
58244;SDS011;44550;43.864;25.986;2022-08-07T18:27:36;6.63;;;4.22;;
58244;SDS011;44550;43.864;25.986;2022-08-07T18:32:07;5.15;;;4.60;;
58244;SDS011;44550;43.864;25.986;2022-08-07T18:36:20;5.60;;;4.40;;
58244;SDS011;44550;43.864;25.986;2022-08-07T18:40:36;10.10;;;6.10;;
58244;SDS011;44550;43.864;25.986;2022-08-07T18:45:05;6.78;;;5.03;;
58244;SDS011;44550;43.864;25.986;2022-08-07T18:49:31;9.02;;;5.07;;
58244;SDS011;44550;43.864;25.986;2022-08-07T18:54:07;8.50;;;5.05;;
58244;SDS011;44550;43.864;25.986;2022-08-07T18:58:32;13.48;;;6.13;;
58244;SDS011;44550;43.864;25.986;2022-08-07T19:02:50;7.43;;;4.70;;
58244;SDS011;44550;43.864;25.986;2022-08-07T19:06:53;9.60;;;4.15;;
58244;SDS011;44550;43.864;25.986;2022-08-07T19:11:05;11.60;;;4.88;;
58244;SDS011;44550;43.864;25.986;2022-08-07T19:15:33;6.07;;;4.82;;
58244;SDS011;44550;43.864;25.986;2022-08-07T19:20:03;12.10;;;4.88;;
58244;SDS011;44550;43.864;25.986;2022-08-07T19:24:27;8.70;;;4.68;;
58244;SDS011;44550;43.864;25.986;2022-08-07T19:28:41;7.47;;;4.20;;
58244;SDS011;44550;43.864;25.986;2022-08-07T19:33:04;8.20;;;4.35;;
58244;SDS011;44550;43.864;25.986;2022-08-07T19:37:15;7.57;;;5.32;;
58244;SDS011;44550;43.864;25.986;2022-08-07T19:41:46;4.75;;;4.13;;
58244;SDS011;44550;43.864;25.986;2022-08-07T19:46:07;5.57;;;4.90;;
58244;SDS011;44550;43.864;25.986;2022-08-07T19:50:25;11.80;;;4.40;;
58244;SDS011;44550;43.864;25.986;2022-08-07T19:54:40;9.75;;;5.20;;
58244;SDS011;44550;43.864;25.986;2022-08-07T19:58:52;9.48;;;4.78;;
58244;SDS011;44550;43.864;25.986;2022-08-07T20:02:55;8.35;;;5.13;;
58244;SDS011;44550;43.864;25.986;2022-08-07T20:07:26;6.82;;;4.68;;
58244;SDS011;44550;43.864;25.986;2022-08-07T20:11:42;6.40;;;4.50;;
58244;SDS011;44550;43.864;25.986;2022-08-07T20:16:03;7.78;;;4.60;;
58244;SDS011;44550;43.864;25.986;2022-08-07T20:20:30;8.45;;;4.90;;
58244;SDS011;44550;43.864;25.986;2022-08-07T20:24:34;5.88;;;5.30;;
58244;SDS011;44550;43.864;25.986;2022-08-07T20:28:35;5.03;;;4.63;;
58244;SDS011;44550;43.864;25.986;2022-08-07T20:32:36;7.15;;;5.05;;
58244;SDS011;44550;43.864;25.986;2022-08-07T20:36:42;8.88;;;6.03;;
58244;SDS011;44550;43.864;25.986;2022-08-07T20:40:50;6.65;;;6.00;;
58244;SDS011;44550;43.864;25.986;2022-08-07T20:45:00;6.30;;;5.70;;
58244;SDS011;44550;43.864;25.986;2022-08-07T20:49:26;15.13;;;6.40;;
58244;SDS011;44550;43.864;25.986;2022-08-07T20:53:47;9.25;;;6.50;;
58244;SDS011;44550;43.864;25.986;2022-08-07T20:58:03;9.07;;;8.05;;
58244;SDS011;44550;43.864;25.986;2022-08-07T21:02:16;15.02;;;6.18;;
58244;SDS011;44550;43.864;25.986;2022-08-07T21:06:38;9.30;;;6.20;;
58244;SDS011;44550;43.864;25.986;2022-08-07T21:10:50;12.65;;;7.03;;
58244;SDS011;44550;43.864;25.986;2022-08-07T21:15:00;10.50;;;7.57;;
58244;SDS011;44550;43.864;25.986;2022-08-07T21:19:15;8.80;;;5.85;;
58244;SDS011;44550;43.864;25.986;2022-08-07T21:23:20;10.27;;;6.30;;
58244;SDS011;44550;43.864;25.986;2022-08-07T21:27:29;10.68;;;6.35;;
58244;SDS011;44550;43.864;25.986;2022-08-07T21:31:50;6.70;;;5.85;;
58244;SDS011;44550;43.864;25.986;2022-08-07T21:36:24;7.78;;;6.28;;
58244;SDS011;44550;43.864;25.986;2022-08-07T21:40:30;8.30;;;6.10;;
58244;SDS011;44550;43.864;25.986;2022-08-07T21:44:41;8.02;;;6.47;;
58244;SDS011;44550;43.864;25.986;2022-08-07T21:48:52;7.25;;;6.32;;
58244;SDS011;44550;43.864;25.986;2022-08-07T21:52:59;10.32;;;6.75;;
58244;SDS011;44550;43.864;25.986;2022-08-07T21:57:08;8.45;;;6.32;;
58244;SDS011;44550;43.864;25.986;2022-08-07T22:01:36;9.70;;;6.65;;
58244;SDS011;44550;43.864;25.986;2022-08-07T22:06:08;10.98;;;7.07;;
58244;SDS011;44550;43.864;25.986;2022-08-07T22:10:28;7.78;;;6.70;;
58244;SDS011;44550;43.864;25.986;2022-08-07T22:14:34;10.55;;;7.05;;
58244;SDS011;44550;43.864;25.986;2022-08-07T22:18:57;9.18;;;6.80;;
58244;SDS011;44550;43.864;25.986;2022-08-07T22:23:12;9.35;;;6.38;;
58244;SDS011;44550;43.864;25.986;2022-08-07T22:27:19;9.02;;;7.05;;
58244;SDS011;44550;43.864;25.986;2022-08-07T22:31:47;10.70;;;7.82;;
58244;SDS011;44550;43.864;25.986;2022-08-07T22:36:03;12.60;;;7.30;;
58244;SDS011;44550;43.864;25.986;2022-08-07T22:40:14;7.45;;;6.57;;
58244;SDS011;44550;43.864;25.986;2022-08-07T22:44:19;7.95;;;6.95;;
58244;SDS011;44550;43.864;25.986;2022-08-07T22:48:27;7.47;;;6.65;;
58244;SDS011;44550;43.864;25.986;2022-08-07T22:53:11;9.15;;;7.15;;
58244;SDS011;44550;43.864;25.986;2022-08-07T22:57:48;9.70;;;7.10;;
58244;SDS011;44550;43.864;25.986;2022-08-07T23:02:20;9.90;;;7.90;;
58244;SDS011;44550;43.864;25.986;2022-08-07T23:06:41;12.10;;;7.13;;
58244;SDS011;44550;43.864;25.986;2022-08-07T23:10:55;8.05;;;7.07;;
58244;SDS011;44550;43.864;25.986;2022-08-07T23:15:14;8.18;;;6.97;;
58244;SDS011;44550;43.864;25.986;2022-08-07T23:19:41;9.25;;;7.03;;
58244;SDS011;44550;43.864;25.986;2022-08-07T23:24:13;11.32;;;7.28;;
58244;SDS011;44550;43.864;25.986;2022-08-07T23:28:45;7.80;;;6.97;;
58244;SDS011;44550;43.864;25.986;2022-08-07T23:33:19;6.93;;;6.30;;
58244;SDS011;44550;43.864;25.986;2022-08-07T23:38:04;7.88;;;6.60;;
58244;SDS011;44550;43.864;25.986;2022-08-07T23:42:35;6.60;;;6.10;;
58244;SDS011;44550;43.864;25.986;2022-08-07T23:51:21;7.80;;;6.68;;
58244;SDS011;44550;43.864;25.986;2022-08-07T23:55:45;6.63;;;6.00;;
58244;SDS011;44550;43.864;25.986;2022-08-07T23:59:55;8.90;;;6.93;;
